sensor_id;sensor_type;location;lat;lon;timestamp;pressure;altitude;pressure_sealevel;temperature;humidity
61742;BME280;47650;49.848;9.620;2022-11-09T00:01:06;99205.19;;;11.43;75.21
61742;BME280;47650;49.848;9.620;2022-11-09T00:03:32;99204.41;;;11.59;75.05
61742;BME280;47650;49.848;9.620;2022-11-09T00:05:59;99210.75;;;11.66;74.66
61742;BME280;47650;49.848;9.620;2022-11-09T00:08:27;99205.13;;;11.69;73.93
61742;BME280;47650;49.848;9.620;2022-11-09T00:11:01;99202.44;;;11.69;74.82
61742;BME280;47650;49.848;9.620;2022-11-09T00:13:26;99179.41;;;11.78;74.54
61742;BME280;47650;49.848;9.620;2022-11-09T00:15:57;99180.06;;;11.80;74.15
61742;BME280;47650;49.848;9.620;2022-11-09T00:18:23;99193.09;;;11.48;73.33
61742;BME280;47650;49.848;9.620;2022-11-09T00:20:57;99190.53;;;11.73;74.16
61742;BME280;47650;49.848;9.620;2022-11-09T00:23:22;99179.25;;;11.79;74.35
61742;BME280;47650;49.848;9.620;2022-11-09T00:25:49;99181.09;;;11.87;74.24
61742;BME280;47650;49.848;9.620;2022-11-09T00:28:14;99180.28;;;11.95;74.20
61742;BME280;47650;49.848;9.620;2022-11-09T00:30:40;99164.50;;;11.93;73.96
61742;BME280;47650;49.848;9.620;2022-11-09T00:33:07;99147.06;;;11.99;73.59
61742;BME280;47650;49.848;9.620;2022-11-09T00:35:33;99154.22;;;12.07;73.20
61742;BME280;47650;49.848;9.620;2022-11-09T00:37:58;99132.25;;;11.88;72.93
61742;BME280;47650;49.848;9.620;2022-11-09T00:40:23;99163.63;;;11.76;71.11
61742;BME280;47650;49.848;9.620;2022-11-09T00:42:48;99184.94;;;11.34;74.06
61742;BME280;47650;49.848;9.620;2022-11-09T00:45:14;99196.97;;;11.12;75.05
61742;BME280;47650;49.848;9.620;2022-11-09T00:47:40;99191.91;;;11.35;75.60
61742;BME280;47650;49.848;9.620;2022-11-09T00:50:05;99198.56;;;11.47;75.32
61742;BME280;47650;49.848;9.620;2022-11-09T00:52:31;99188.31;;;11.44;75.23
61742;BME280;47650;49.848;9.620;2022-11-09T00:54:56;99172.88;;;11.47;75.23
61742;BME280;47650;49.848;9.620;2022-11-09T00:57:22;99194.16;;;11.72;75.74
61742;BME280;47650;49.848;9.620;2022-11-09T00:59:47;99187.88;;;11.81;75.10
61742;BME280;47650;49.848;9.620;2022-11-09T01:02:12;99188.25;;;11.95;74.70
61742;BME280;47650;49.848;9.620;2022-11-09T01:04:38;99204.72;;;12.07;74.23
61742;BME280;47650;49.848;9.620;2022-11-09T01:07:06;99224.81;;;12.01;73.73
61742;BME280;47650;49.848;9.620;2022-11-09T01:09:32;99224.69;;;11.60;74.54
61742;BME280;47650;49.848;9.620;2022-11-09T01:11:57;99186.84;;;11.58;74.68
61742;BME280;47650;49.848;9.620;2022-11-09T01:14:23;99177.03;;;11.58;74.67
61742;BME280;47650;49.848;9.620;2022-11-09T01:16:48;99231.88;;;11.84;74.96
61742;BME280;47650;49.848;9.620;2022-11-09T01:19:20;99231.13;;;11.57;75.18
61742;BME280;47650;49.848;9.620;2022-11-09T01:21:45;99233.34;;;11.70;75.89
61742;BME280;47650;49.848;9.620;2022-11-09T01:24:11;99228.66;;;11.64;76.83
61742;BME280;47650;49.848;9.620;2022-11-09T01:26:42;99234.97;;;11.63;77.44
61742;BME280;47650;49.848;9.620;2022-11-09T01:29:07;99235.97;;;11.62;78.07
61742;BME280;47650;49.848;9.620;2022-11-09T01:31:32;99241.59;;;11.59;78.47
61742;BME280;47650;49.848;9.620;2022-11-09T01:33:58;99231.28;;;11.56;78.92
61742;BME280;47650;49.848;9.620;2022-11-09T01:36:23;99217.00;;;11.48;79.79
61742;BME280;47650;49.848;9.620;2022-11-09T01:38:49;99228.00;;;11.62;79.81
61742;BME280;47650;49.848;9.620;2022-11-09T01:41:25;99215.38;;;11.64;80.60
61742;BME280;47650;49.848;9.620;2022-11-09T01:44:04;99229.00;;;11.69;80.48
61742;BME280;47650;49.848;9.620;2022-11-09T01:46:38;99228.94;;;11.44;79.66
61742;BME280;47650;49.848;9.620;2022-11-09T01:49:19;99233.09;;;11.47;80.31
61742;BME280;47650;49.848;9.620;2022-11-09T01:51:55;99236.09;;;11.52;81.21
61742;BME280;47650;49.848;9.620;2022-11-09T01:54:36;99233.94;;;11.56;81.67
61742;BME280;47650;49.848;9.620;2022-11-09T01:57:09;99222.53;;;11.63;82.12
61742;BME280;47650;49.848;9.620;2022-11-09T01:59:37;99227.31;;;11.52;81.37
61742;BME280;47650;49.848;9.620;2022-11-09T02:02:05;99227.69;;;11.65;81.75
61742;BME280;47650;49.848;9.620;2022-11-09T02:04:40;99231.66;;;11.69;81.82
61742;BME280;47650;49.848;9.620;2022-11-09T02:07:07;99225.22;;;11.72;82.21
61742;BME280;47650;49.848;9.620;2022-11-09T02:12:24;99221.72;;;11.79;82.26
61742;BME280;47650;49.848;9.620;2022-11-09T02:14:51;99218.59;;;11.84;82.33
61742;BME280;47650;49.848;9.620;2022-11-09T02:17:18;99212.47;;;11.83;82.78
61742;BME280;47650;49.848;9.620;2022-11-09T02:19:44;99218.09;;;11.89;82.60
61742;BME280;47650;49.848;9.620;2022-11-09T02:22:09;99224.78;;;11.93;82.70
61742;BME280;47650;49.848;9.620;2022-11-09T02:24:35;99215.66;;;11.95;82.66
61742;BME280;47650;49.848;9.620;2022-11-09T02:27:03;99226.13;;;11.97;82.60
61742;BME280;47650;49.848;9.620;2022-11-09T02:29:36;99223.13;;;12.00;83.09
61742;BME280;47650;49.848;9.620;2022-11-09T02:32:06;99214.50;;;11.98;83.34
61742;BME280;47650;49.848;9.620;2022-11-09T02:34:33;99207.00;;;11.93;83.65
61742;BME280;47650;49.848;9.620;2022-11-09T02:36:58;99215.31;;;11.98;83.39
61742;BME280;47650;49.848;9.620;2022-11-09T02:39:26;99227.13;;;11.96;83.13
61742;BME280;47650;49.848;9.620;2022-11-09T02:41:55;99217.63;;;11.93;83.54
61742;BME280;47650;49.848;9.620;2022-11-09T02:44:23;99211.19;;;11.96;83.25
61742;BME280;47650;49.848;9.620;2022-11-09T02:46:50;99197.81;;;11.71;82.91
61742;BME280;47650;49.848;9.620;2022-11-09T02:49:16;99171.22;;;11.55;83.43
61742;BME280;47650;49.848;9.620;2022-11-09T02:51:41;99211.09;;;11.79;83.45
61742;BME280;47650;49.848;9.620;2022-11-09T02:54:07;99215.13;;;11.83;83.73
61742;BME280;47650;49.848;9.620;2022-11-09T02:56:32;99211.28;;;11.86;84.03
61742;BME280;47650;49.848;9.620;2022-11-09T02:58:57;99211.78;;;11.90;84.39
61742;BME280;47650;49.848;9.620;2022-11-09T03:01:23;99216.28;;;11.89;84.19
61742;BME280;47650;49.848;9.620;2022-11-09T03:03:48;99213.50;;;11.91;84.55
61742;BME280;47650;49.848;9.620;2022-11-09T03:06:13;99214.81;;;11.95;85.33
61742;BME280;47650;49.848;9.620;2022-11-09T03:08:40;99191.22;;;11.83;85.06
61742;BME280;47650;49.848;9.620;2022-11-09T03:11:06;99200.06;;;11.92;85.47
61742;BME280;47650;49.848;9.620;2022-11-09T03:13:32;99207.19;;;12.00;85.22
61742;BME280;47650;49.848;9.620;2022-11-09T03:16:03;99185.38;;;11.80;85.82
61742;BME280;47650;49.848;9.620;2022-11-09T03:18:30;99207.03;;;11.42;83.46
61742;BME280;47650;49.848;9.620;2022-11-09T03:21:03;99210.06;;;11.64;85.46
61742;BME280;47650;49.848;9.620;2022-11-09T03:23:30;99213.75;;;11.71;86.13
61742;BME280;47650;49.848;9.620;2022-11-09T03:25:55;99219.06;;;11.71;86.56
61742;BME280;47650;49.848;9.620;2022-11-09T03:28:27;99222.06;;;11.76;86.76
61742;BME280;47650;49.848;9.620;2022-11-09T03:30:53;99225.56;;;11.85;87.40
61742;BME280;47650;49.848;9.620;2022-11-09T03:33:19;99218.81;;;11.91;87.53
61742;BME280;47650;49.848;9.620;2022-11-09T03:35:45;99217.09;;;11.90;88.14
61742;BME280;47650;49.848;9.620;2022-11-09T03:38:10;99210.13;;;11.89;87.90
61742;BME280;47650;49.848;9.620;2022-11-09T03:40:36;99225.28;;;11.96;87.61
61742;BME280;47650;49.848;9.620;2022-11-09T03:43:01;99213.84;;;11.96;87.41
61742;BME280;47650;49.848;9.620;2022-11-09T03:45:26;99112.09;;;11.28;86.55
61742;BME280;47650;49.848;9.620;2022-11-09T03:47:52;99223.47;;;11.97;87.23
61742;BME280;47650;49.848;9.620;2022-11-09T03:50:26;99210.16;;;11.97;87.17
61742;BME280;47650;49.848;9.620;2022-11-09T03:52:53;99200.50;;;11.79;86.84
61742;BME280;47650;49.848;9.620;2022-11-09T03:55:19;99199.00;;;11.85;86.67
61742;BME280;47650;49.848;9.620;2022-11-09T03:57:44;99214.50;;;11.98;87.10
61742;BME280;47650;49.848;9.620;2022-11-09T04:00:12;99194.38;;;11.95;87.80
61742;BME280;47650;49.848;9.620;2022-11-09T04:02:37;99186.06;;;11.90;87.20
61742;BME280;47650;49.848;9.620;2022-11-09T04:05:05;99179.09;;;11.89;87.39
61742;BME280;47650;49.848;9.620;2022-11-09T04:07:31;99157.50;;;11.76;87.48
61742;BME280;47650;49.848;9.620;2022-11-09T04:09:56;99164.13;;;11.72;88.81
61742;BME280;47650;49.848;9.620;2022-11-09T04:12:22;99155.59;;;11.35;88.26
61742;BME280;47650;49.848;9.620;2022-11-09T04:14:47;99203.59;;;10.81;89.76
61742;BME280;47650;49.848;9.620;2022-11-09T04:17:12;99200.69;;;10.66;89.79
61742;BME280;47650;49.848;9.620;2022-11-09T04:19:38;99180.25;;;10.85;90.44
61742;BME280;47650;49.848;9.620;2022-11-09T04:22:06;99202.94;;;11.14;90.00
61742;BME280;47650;49.848;9.620;2022-11-09T04:24:32;99195.72;;;11.32;90.61
61742;BME280;47650;49.848;9.620;2022-11-09T04:26:58;99202.06;;;11.47;89.86
61742;BME280;47650;49.848;9.620;2022-11-09T04:29:24;99181.34;;;11.51;89.77
61742;BME280;47650;49.848;9.620;2022-11-09T04:31:49;99176.56;;;11.71;89.63
61742;BME280;47650;49.848;9.620;2022-11-09T04:34:15;99168.28;;;11.82;89.73
61742;BME280;47650;49.848;9.620;2022-11-09T04:36:42;99171.31;;;11.28;87.29
61742;BME280;47650;49.848;9.620;2022-11-09T04:39:07;99180.75;;;11.23;88.38
61742;BME280;47650;49.848;9.620;2022-11-09T04:41:32;99187.47;;;11.52;89.28
61742;BME280;47650;49.848;9.620;2022-11-09T04:43:58;99188.31;;;11.60;89.96
61742;BME280;47650;49.848;9.620;2022-11-09T04:46:23;99187.19;;;11.71;90.16
61742;BME280;47650;49.848;9.620;2022-11-09T04:48:48;99183.22;;;11.75;90.31
61742;BME280;47650;49.848;9.620;2022-11-09T04:51:15;99177.41;;;11.72;89.45
61742;BME280;47650;49.848;9.620;2022-11-09T04:53:46;99185.91;;;11.83;89.41
61742;BME280;47650;49.848;9.620;2022-11-09T04:56:13;99190.16;;;11.60;89.81
61742;BME280;47650;49.848;9.620;2022-11-09T04:58:39;99205.28;;;11.59;88.93
61742;BME280;47650;49.848;9.620;2022-11-09T05:01:07;99203.31;;;11.78;89.89
61742;BME280;47650;49.848;9.620;2022-11-09T05:03:33;99203.66;;;11.83;90.00
61742;BME280;47650;49.848;9.620;2022-11-09T05:05:59;99221.13;;;11.94;89.81
61742;BME280;47650;49.848;9.620;2022-11-09T05:08:25;99200.50;;;11.79;89.72
61742;BME280;47650;49.848;9.620;2022-11-09T05:10:50;99227.28;;;12.02;89.56
61742;BME280;47650;49.848;9.620;2022-11-09T05:13:16;99211.13;;;11.88;89.32
61742;BME280;47650;49.848;9.620;2022-11-09T05:15:42;99205.97;;;11.86;88.80
61742;BME280;47650;49.848;9.620;2022-11-09T05:18:08;99240.91;;;12.08;89.44
61742;BME280;47650;49.848;9.620;2022-11-09T05:20:34;99247.06;;;12.08;88.88
61742;BME280;47650;49.848;9.620;2022-11-09T05:23:00;99249.41;;;12.11;89.07
61742;BME280;47650;49.848;9.620;2022-11-09T05:25:46;99243.56;;;12.16;89.58
61742;BME280;47650;49.848;9.620;2022-11-09T05:28:11;99238.59;;;12.21;89.35
61742;BME280;47650;49.848;9.620;2022-11-09T05:30:37;99240.94;;;12.24;88.86
61742;BME280;47650;49.848;9.620;2022-11-09T05:33:03;99224.00;;;12.17;88.71
61742;BME280;47650;49.848;9.620;2022-11-09T05:35:31;99234.78;;;12.23;88.26
61742;BME280;47650;49.848;9.620;2022-11-09T05:37:58;99210.19;;;12.13;88.41
61742;BME280;47650;49.848;9.620;2022-11-09T05:40:33;99233.47;;;12.28;88.74
61742;BME280;47650;49.848;9.620;2022-11-09T05:43:00;99227.47;;;12.26;88.87
61742;BME280;47650;49.848;9.620;2022-11-09T05:45:25;99238.59;;;12.29;88.71
61742;BME280;47650;49.848;9.620;2022-11-09T05:47:50;99230.44;;;12.14;88.62
61742;BME280;47650;49.848;9.620;2022-11-09T05:50:22;99230.78;;;12.19;89.01
61742;BME280;47650;49.848;9.620;2022-11-09T05:52:47;99233.44;;;12.03;88.68
61742;BME280;47650;49.848;9.620;2022-11-09T05:55:14;99222.56;;;11.80;88.77
61742;BME280;47650;49.848;9.620;2022-11-09T05:57:39;99232.78;;;12.01;89.59
61742;BME280;47650;49.848;9.620;2022-11-09T06:00:06;99225.47;;;12.03;89.80
61742;BME280;47650;49.848;9.620;2022-11-09T06:02:38;99201.31;;;11.80;89.24
61742;BME280;47650;49.848;9.620;2022-11-09T06:05:03;99218.75;;;11.82;89.42
61742;BME280;47650;49.848;9.620;2022-11-09T06:07:29;99237.91;;;12.02;89.69
61742;BME280;47650;49.848;9.620;2022-11-09T06:09:54;99239.22;;;11.98;89.89
61742;BME280;47650;49.848;9.620;2022-11-09T06:12:21;99246.34;;;11.90;88.96
61742;BME280;47650;49.848;9.620;2022-11-09T06:14:47;99235.69;;;11.81;88.58
61742;BME280;47650;49.848;9.620;2022-11-09T06:17:12;99236.03;;;11.78;89.09
61742;BME280;47650;49.848;9.620;2022-11-09T06:19:44;99221.41;;;11.82;89.85
61742;BME280;47650;49.848;9.620;2022-11-09T06:22:13;99227.56;;;11.83;90.27
61742;BME280;47650;49.848;9.620;2022-11-09T06:24:38;99228.72;;;11.89;89.58
61742;BME280;47650;49.848;9.620;2022-11-09T06:27:05;99232.59;;;11.94;89.81
61742;BME280;47650;49.848;9.620;2022-11-09T06:29:30;99229.34;;;11.74;89.18
61742;BME280;47650;49.848;9.620;2022-11-09T06:31:56;99232.69;;;11.84;89.57
61742;BME280;47650;49.848;9.620;2022-11-09T06:34:21;99231.13;;;11.57;89.25
61742;BME280;47650;49.848;9.620;2022-11-09T06:36:49;99246.81;;;11.85;90.17
61742;BME280;47650;49.848;9.620;2022-11-09T06:39:21;99248.16;;;11.89;90.47
61742;BME280;47650;49.848;9.620;2022-11-09T06:41:47;99231.03;;;11.75;90.06
61742;BME280;47650;49.848;9.620;2022-11-09T06:44:13;99229.03;;;11.77;90.17
61742;BME280;47650;49.848;9.620;2022-11-09T06:46:44;99250.03;;;11.97;90.23
61742;BME280;47650;49.848;9.620;2022-11-09T06:49:12;99242.72;;;11.99;90.37
61742;BME280;47650;49.848;9.620;2022-11-09T06:51:43;99260.84;;;12.12;90.53
61742;BME280;47650;49.848;9.620;2022-11-09T06:54:08;99270.81;;;12.10;90.37
61742;BME280;47650;49.848;9.620;2022-11-09T06:56:34;99272.00;;;12.23;90.16
61742;BME280;47650;49.848;9.620;2022-11-09T06:58:59;99276.97;;;12.27;90.13
61742;BME280;47650;49.848;9.620;2022-11-09T07:01:27;99289.28;;;12.36;89.83
61742;BME280;47650;49.848;9.620;2022-11-09T07:03:52;99270.69;;;12.36;89.95
61742;BME280;47650;49.848;9.620;2022-11-09T07:06:19;99251.88;;;12.04;91.37
61742;BME280;47650;49.848;9.620;2022-11-09T07:08:46;99253.06;;;12.18;91.96
61742;BME280;47650;49.848;9.620;2022-11-09T07:11:13;99256.69;;;12.17;92.22
61742;BME280;47650;49.848;9.620;2022-11-09T07:13:47;99282.81;;;12.30;92.11
61742;BME280;47650;49.848;9.620;2022-11-09T07:16:14;99275.00;;;12.37;93.02
61742;BME280;47650;49.848;9.620;2022-11-09T07:18:46;99310.88;;;12.25;92.59
61742;BME280;47650;49.848;9.620;2022-11-09T07:21:14;99308.53;;;12.30;95.18
61742;BME280;47650;49.848;9.620;2022-11-09T07:23:39;99319.03;;;12.39;94.35
61742;BME280;47650;49.848;9.620;2022-11-09T07:26:05;99301.25;;;12.40;95.04
61742;BME280;47650;49.848;9.620;2022-11-09T07:28:40;99315.22;;;12.50;94.96
61742;BME280;47650;49.848;9.620;2022-11-09T07:31:06;99309.41;;;12.47;95.07
61742;BME280;47650;49.848;9.620;2022-11-09T07:33:31;99299.94;;;12.36;96.31
61742;BME280;47650;49.848;9.620;2022-11-09T07:36:02;99294.78;;;12.51;95.97
61742;BME280;47650;49.848;9.620;2022-11-09T07:38:36;99259.59;;;11.90;95.43
61742;BME280;47650;49.848;9.620;2022-11-09T07:41:03;99305.59;;;12.49;96.29
61742;BME280;47650;49.848;9.620;2022-11-09T07:43:29;99304.41;;;12.44;95.33
61742;BME280;47650;49.848;9.620;2022-11-09T07:45:54;99301.75;;;12.68;95.75
61742;BME280;47650;49.848;9.620;2022-11-09T07:48:20;99280.66;;;12.34;95.20
61742;BME280;47650;49.848;9.620;2022-11-09T07:50:48;99295.22;;;12.21;94.28
61742;BME280;47650;49.848;9.620;2022-11-09T07:53:14;99303.59;;;12.68;95.67
61742;BME280;47650;49.848;9.620;2022-11-09T07:55:40;99321.56;;;12.74;95.37
61742;BME280;47650;49.848;9.620;2022-11-09T07:58:13;99320.72;;;12.73;95.00
61742;BME280;47650;49.848;9.620;2022-11-09T08:00:39;99328.03;;;12.71;94.79
61742;BME280;47650;49.848;9.620;2022-11-09T08:03:20;99323.38;;;12.90;95.83
61742;BME280;47650;49.848;9.620;2022-11-09T08:05:55;99306.41;;;12.74;95.87
61742;BME280;47650;49.848;9.620;2022-11-09T08:08:20;99281.63;;;12.90;94.32
61742;BME280;47650;49.848;9.620;2022-11-09T08:10:47;99273.41;;;13.25;94.37
61742;BME280;47650;49.848;9.620;2022-11-09T08:13:22;99290.19;;;13.42;93.57
61742;BME280;47650;49.848;9.620;2022-11-09T08:15:48;99295.03;;;13.22;93.30
61742;BME280;47650;49.848;9.620;2022-11-09T08:18:19;99264.59;;;13.24;93.56
61742;BME280;47650;49.848;9.620;2022-11-09T08:20:45;99305.13;;;13.59;93.55
61742;BME280;47650;49.848;9.620;2022-11-09T08:23:12;99301.19;;;13.39;92.66
61742;BME280;47650;49.848;9.620;2022-11-09T08:25:40;99309.91;;;12.83;92.83
61742;BME280;47650;49.848;9.620;2022-11-09T08:28:07;99291.47;;;13.54;93.62
61742;BME280;47650;49.848;9.620;2022-11-09T08:30:34;99291.81;;;13.51;92.80
61742;BME280;47650;49.848;9.620;2022-11-09T08:33:04;99297.56;;;13.31;92.40
61742;BME280;47650;49.848;9.620;2022-11-09T08:35:30;99289.47;;;13.56;93.84
61742;BME280;47650;49.848;9.620;2022-11-09T08:38:00;99288.94;;;13.69;93.72
61742;BME280;47650;49.848;9.620;2022-11-09T08:40:27;99294.88;;;13.40;92.90
61742;BME280;47650;49.848;9.620;2022-11-09T08:42:53;99269.91;;;13.24;93.06
61742;BME280;47650;49.848;9.620;2022-11-09T08:45:20;99282.88;;;13.35;92.83
61742;BME280;47650;49.848;9.620;2022-11-09T08:47:48;99284.22;;;13.23;93.73
61742;BME280;47650;49.848;9.620;2022-11-09T08:50:20;99287.13;;;13.61;92.76
61742;BME280;47650;49.848;9.620;2022-11-09T08:52:46;99278.59;;;13.74;91.36
61742;BME280;47650;49.848;9.620;2022-11-09T08:55:11;99286.63;;;13.66;91.79
61742;BME280;47650;49.848;9.620;2022-11-09T08:57:38;99289.75;;;13.69;91.87
61742;BME280;47650;49.848;9.620;2022-11-09T09:00:05;99283.69;;;13.84;91.32
61742;BME280;47650;49.848;9.620;2022-11-09T09:02:31;99285.06;;;13.80;92.02
61742;BME280;47650;49.848;9.620;2022-11-09T09:04:58;99284.34;;;13.86;91.41
61742;BME280;47650;49.848;9.620;2022-11-09T09:07:24;99298.75;;;13.68;89.52
61742;BME280;47650;49.848;9.620;2022-11-09T09:09:49;99305.13;;;13.59;89.12
61742;BME280;47650;49.848;9.620;2022-11-09T09:12:16;99310.72;;;13.81;89.10
61742;BME280;47650;49.848;9.620;2022-11-09T09:14:42;99308.13;;;13.96;90.77
61742;BME280;47650;49.848;9.620;2022-11-09T09:17:07;99314.94;;;13.98;89.53
61742;BME280;47650;49.848;9.620;2022-11-09T09:19:32;99310.06;;;14.33;90.09
61742;BME280;47650;49.848;9.620;2022-11-09T09:21:59;99307.19;;;14.11;89.22
61742;BME280;47650;49.848;9.620;2022-11-09T09:24:27;99288.66;;;14.18;89.81
61742;BME280;47650;49.848;9.620;2022-11-09T09:26:52;99314.28;;;14.27;89.55
61742;BME280;47650;49.848;9.620;2022-11-09T09:29:18;99326.13;;;14.25;89.12
61742;BME280;47650;49.848;9.620;2022-11-09T09:31:43;99314.38;;;14.11;90.33
61742;BME280;47650;49.848;9.620;2022-11-09T09:34:09;99315.72;;;13.76;88.87
61742;BME280;47650;49.848;9.620;2022-11-09T09:36:43;99343.91;;;14.01;90.72
61742;BME280;47650;49.848;9.620;2022-11-09T09:39:09;99341.50;;;13.75;90.86
61742;BME280;47650;49.848;9.620;2022-11-09T09:41:39;99339.00;;;14.13;90.63
61742;BME280;47650;49.848;9.620;2022-11-09T09:44:21;99335.34;;;14.14;89.84
61742;BME280;47650;49.848;9.620;2022-11-09T09:47:11;99338.75;;;14.00;88.69
61742;BME280;47650;49.848;9.620;2022-11-09T09:49:51;99349.06;;;14.03;88.20
61742;BME280;47650;49.848;9.620;2022-11-09T09:52:35;99360.13;;;14.23;89.29
61742;BME280;47650;49.848;9.620;2022-11-09T09:55:17;99361.59;;;13.94;89.96
61742;BME280;47650;49.848;9.620;2022-11-09T09:57:50;99361.84;;;14.16;89.78
61742;BME280;47650;49.848;9.620;2022-11-09T10:00:20;99357.44;;;14.31;89.69
61742;BME280;47650;49.848;9.620;2022-11-09T10:02:47;99356.31;;;14.95;87.77
61742;BME280;47650;49.848;9.620;2022-11-09T10:05:17;99360.44;;;14.82;86.94
61742;BME280;47650;49.848;9.620;2022-11-09T10:08:09;99356.47;;;14.78;86.95
61742;BME280;47650;49.848;9.620;2022-11-09T10:10:53;99355.31;;;14.96;86.49
61742;BME280;47650;49.848;9.620;2022-11-09T10:19:24;99348.63;;;16.77;79.83
61742;BME280;47650;49.848;9.620;2022-11-09T10:21:52;99339.03;;;18.09;74.44
61742;BME280;47650;49.848;9.620;2022-11-09T10:27:35;99336.28;;;17.96;70.51
61742;BME280;47650;49.848;9.620;2022-11-09T10:30:11;99329.88;;;19.32;69.18
61742;BME280;47650;49.848;9.620;2022-11-09T10:32:38;99320.56;;;18.54;66.58
61742;BME280;47650;49.848;9.620;2022-11-09T10:35:20;99321.69;;;19.92;63.95
61742;BME280;47650;49.848;9.620;2022-11-09T10:37:48;99326.63;;;20.40;64.39
61742;BME280;47650;49.848;9.620;2022-11-09T10:40:27;99327.19;;;19.39;67.23
61742;BME280;47650;49.848;9.620;2022-11-09T10:42:55;99325.25;;;18.26;69.70
61742;BME280;47650;49.848;9.620;2022-11-09T10:45:32;99338.25;;;16.67;69.67
61742;BME280;47650;49.848;9.620;2022-11-09T10:47:58;99333.31;;;17.14;74.06
61742;BME280;47650;49.848;9.620;2022-11-09T10:50:46;99332.09;;;17.17;71.01
61742;BME280;47650;49.848;9.620;2022-11-09T10:53:16;99335.19;;;16.12;71.68
61742;BME280;47650;49.848;9.620;2022-11-09T10:56:15;99328.31;;;17.04;75.15
61742;BME280;47650;49.848;9.620;2022-11-09T10:58:52;99326.00;;;16.80;75.53
61742;BME280;47650;49.848;9.620;2022-11-09T11:01:25;99314.22;;;17.24;72.17
61742;BME280;47650;49.848;9.620;2022-11-09T11:03:54;99310.25;;;17.20;68.22
61742;BME280;47650;49.848;9.620;2022-11-09T11:09:34;99309.09;;;18.06;67.91
61742;BME280;47650;49.848;9.620;2022-11-09T11:11:36;99305.09;;;17.88;69.68
61742;BME280;47650;49.848;9.620;2022-11-09T11:14:16;99296.25;;;17.94;70.90
61742;BME280;47650;49.848;9.620;2022-11-09T11:16:42;99279.88;;;17.34;68.93
61742;BME280;47650;49.848;9.620;2022-11-09T11:19:34;99283.19;;;19.26;62.58
61742;BME280;47650;49.848;9.620;2022-11-09T11:25:01;99262.59;;;20.74;61.00
61742;BME280;47650;49.848;9.620;2022-11-09T11:27:43;99262.00;;;22.20;55.13
61742;BME280;47650;49.848;9.620;2022-11-09T11:32:42;99281.78;;;20.21;55.20
61742;BME280;47650;49.848;9.620;2022-11-09T11:35:16;99280.59;;;19.58;55.85
61742;BME280;47650;49.848;9.620;2022-11-09T11:38:03;99272.84;;;19.30;56.12
61742;BME280;47650;49.848;9.620;2022-11-09T11:40:38;99272.50;;;19.71;55.70
61742;BME280;47650;49.848;9.620;2022-11-09T11:46:02;99286.03;;;18.25;58.52
61742;BME280;47650;49.848;9.620;2022-11-09T11:54:21;99281.81;;;19.76;54.21
61742;BME280;47650;49.848;9.620;2022-11-09T11:57:10;99274.88;;;20.38;53.26
61742;BME280;47650;49.848;9.620;2022-11-09T12:02:26;99266.16;;;22.04;48.78
61742;BME280;47650;49.848;9.620;2022-11-09T12:16:16;99246.38;;;19.20;56.05
61742;BME280;47650;49.848;9.620;2022-11-09T12:24:59;99262.19;;;17.46;60.86
61742;BME280;47650;49.848;9.620;2022-11-09T12:27:43;99270.19;;;17.81;61.12
61742;BME280;47650;49.848;9.620;2022-11-09T12:30:20;99266.94;;;17.09;62.93
61742;BME280;47650;49.848;9.620;2022-11-09T12:36:07;99270.25;;;16.19;65.25
61742;BME280;47650;49.848;9.620;2022-11-09T12:38:41;99275.72;;;16.75;64.64
61742;BME280;47650;49.848;9.620;2022-11-09T12:41:15;99284.47;;;16.41;65.95
61742;BME280;47650;49.848;9.620;2022-11-09T12:43:56;99284.78;;;16.31;66.23
61742;BME280;47650;49.848;9.620;2022-11-09T12:46:26;99277.31;;;16.05;67.40
61742;BME280;47650;49.848;9.620;2022-11-09T12:48:55;99288.41;;;16.23;67.01
61742;BME280;47650;49.848;9.620;2022-11-09T12:51:23;99281.53;;;16.57;66.09
61742;BME280;47650;49.848;9.620;2022-11-09T12:53:49;99280.50;;;16.15;66.76
61742;BME280;47650;49.848;9.620;2022-11-09T12:56:20;99275.59;;;16.19;67.45
61742;BME280;47650;49.848;9.620;2022-11-09T12:58:47;99288.00;;;16.26;67.28
61742;BME280;47650;49.848;9.620;2022-11-09T13:04:00;99247.41;;;16.38;65.48
61742;BME280;47650;49.848;9.620;2022-11-09T13:06:28;99257.47;;;17.14;64.63
61742;BME280;47650;49.848;9.620;2022-11-09T13:09:00;99262.53;;;16.73;65.00
61742;BME280;47650;49.848;9.620;2022-11-09T13:11:45;99264.47;;;16.58;65.20
61742;BME280;47650;49.848;9.620;2022-11-09T13:16:49;99266.75;;;16.61;64.49
61742;BME280;47650;49.848;9.620;2022-11-09T13:25:02;99271.31;;;16.67;65.00
61742;BME280;47650;49.848;9.620;2022-11-09T13:27:47;99261.25;;;16.69;64.88
61742;BME280;47650;49.848;9.620;2022-11-09T13:30:39;99260.72;;;16.81;64.72
61742;BME280;47650;49.848;9.620;2022-11-09T13:38:21;99278.97;;;16.70;65.59
61742;BME280;47650;49.848;9.620;2022-11-09T13:40:55;99273.06;;;17.03;64.68
61742;BME280;47650;49.848;9.620;2022-11-09T13:45:57;99269.91;;;16.93;64.81
61742;BME280;47650;49.848;9.620;2022-11-09T13:48:41;99271.03;;;17.05;64.08
61742;BME280;47650;49.848;9.620;2022-11-09T13:51:21;99274.13;;;16.81;64.72
61742;BME280;47650;49.848;9.620;2022-11-09T13:54:01;99275.53;;;16.77;65.01
61742;BME280;47650;49.848;9.620;2022-11-09T13:56:33;99272.38;;;16.73;65.38
61742;BME280;47650;49.848;9.620;2022-11-09T13:59:16;99273.91;;;16.82;64.81
61742;BME280;47650;49.848;9.620;2022-11-09T14:01:51;99260.88;;;16.94;64.69
61742;BME280;47650;49.848;9.620;2022-11-09T14:04:38;99271.78;;;16.92;64.99
61742;BME280;47650;49.848;9.620;2022-11-09T14:07:17;99272.84;;;16.98;64.78
61742;BME280;47650;49.848;9.620;2022-11-09T14:20:08;99266.47;;;16.99;64.16
61742;BME280;47650;49.848;9.620;2022-11-09T14:22:36;99277.16;;;17.27;63.10
61742;BME280;47650;49.848;9.620;2022-11-09T14:25:12;99276.72;;;17.24;63.19
61742;BME280;47650;49.848;9.620;2022-11-09T14:27:53;99275.28;;;17.28;63.63
61742;BME280;47650;49.848;9.620;2022-11-09T14:30:29;99285.09;;;17.14;63.46
61742;BME280;47650;49.848;9.620;2022-11-09T14:32:55;99258.66;;;17.04;63.46